Time;durP1;ratioP1;P1;durP2;ratioP2;P2;SDS_P1;SDS_P2;PMS_P1;PMS_P2;Temp;Humidity;BMP_temperature;BMP_pressure;BME280_temperature;BME280_humidity;BME280_pressure;Samples;Min_cycle;Max_cycle;Signal;HPM_P1;HPM_P2
2021/09/04 00:02:04;;;;;;;8.65;5.65;;;17.80;99.90;;;;;;5034147;28;20045;-87
2021/09/04 00:04:30;;;;;;;10.85;6.32;;;15.90;99.90;;;;;;5030742;28;20030;-86
2021/09/04 00:06:56;;;;;;;10.18;6.22;;;16.00;99.90;;;;;;5034414;28;20037;-87
2021/09/04 00:09:21;;;;;;;11.40;6.18;;;15.90;99.90;;;;;;5033722;28;20619;-88
2021/09/04 00:11:47;;;;;;;12.95;6.65;;;;;;;;;;5046232;28;20028;-87
2021/09/04 00:14:13;;;;;;;9.90;5.88;;;15.80;99.90;;;;;;5022062;28;20503;-85
2021/09/04 00:16:39;;;;;;;11.10;6.22;;;;;;;;;;5038827;28;20070;-89
2021/09/04 00:19:04;;;;;;;10.98;6.03;;;15.80;99.90;;;;;;5031303;28;20038;-85
2021/09/04 00:21:30;;;;;;;9.38;5.93;;;15.70;99.90;;;;;;5031743;28;20025;-88
2021/09/04 00:23:56;;;;;;;11.80;6.13;;;;;;;;;;5034542;28;20046;-89
2021/09/04 00:26:24;;;;;;;9.50;6.03;;;15.70;99.90;;;;;;5023350;28;20033;-88
2021/09/04 00:28:50;;;;;;;9.35;5.63;;;15.70;99.90;;;;;;5016039;28;20040;-87
2021/09/04 00:31:16;;;;;;;12.70;5.68;;;;;;;;;;5018777;28;20100;-90
2021/09/04 00:33:42;;;;;;;16.10;7.68;;;;;;;;;;5018051;28;20502;-87
2021/09/04 00:36:08;;;;;;;11.02;6.70;;;;;;;;;;5030186;28;20179;-87
2021/09/04 00:38:33;;;;;;;9.93;6.30;;;15.60;99.90;;;;;;5029867;28;20036;-86
2021/09/04 00:40:59;;;;;;;9.38;5.72;;;;;;;;;;5023531;28;20545;-88
2021/09/04 00:43:25;;;;;;;8.60;5.80;;;15.50;99.90;;;;;;5035447;28;20026;-86
2021/09/04 00:45:51;;;;;;;11.13;5.78;;;15.40;99.90;;;;;;5030324;28;20026;-89
2021/09/04 00:48:16;;;;;;;12.32;6.10;;;15.50;99.90;;;;;;5037629;28;20037;-88
2021/09/04 00:50:42;;;;;;;10.15;5.53;;;15.50;99.90;;;;;;5039927;28;20036;-85
2021/09/04 00:53:08;;;;;;;9.48;5.47;;;;;;;;;;5052755;28;20021;-86
2021/09/04 00:55:34;;;;;;;12.35;5.85;;;;;;;;;;5031024;28;20053;-87
2021/09/04 00:58:00;;;;;;;13.82;6.40;;;;;;;;;;5024965;28;20036;-89
2021/09/04 01:00:28;;;;;;;9.98;5.80;;;15.30;99.90;;;;;;5026908;28;20030;-85
2021/09/04 01:02:54;;;;;;;9.50;5.75;;;;;;;;;;5038641;28;20079;-87
2021/09/04 01:05:20;;;;;;;12.50;6.03;;;15.30;99.90;;;;;;5030353;28;20141;-86
2021/09/04 01:07:47;;;;;;;8.25;5.07;;;15.30;99.90;;;;;;5023262;28;20065;-86
2021/09/04 01:10:13;;;;;;;9.77;6.53;;;15.30;99.90;;;;;;5032630;28;20096;-88
2021/09/04 01:12:39;;;;;;;11.18;6.60;;;;;;;;;;5032524;28;20029;-84
2021/09/04 01:15:07;;;;;;;9.90;5.82;;;15.30;99.90;;;;;;5033526;28;20116;-88
2021/09/04 01:17:33;;;;;;;9.52;5.75;;;15.20;99.90;;;;;;5030052;28;20399;-87
2021/09/04 01:19:59;;;;;;;9.85;5.70;;;;;;;;;;5030120;28;20025;-87
2021/09/04 01:22:29;;;;;;;11.30;6.82;;;15.20;99.90;;;;;;5032345;28;20444;-87
2021/09/04 01:24:55;;;;;;;17.40;6.45;;;;;;;;;;5033239;28;20033;-89
2021/09/04 01:27:21;;;;;;;12.57;6.60;;;;;;;;;;5030334;28;20117;-88
2021/09/04 01:29:47;;;;;;;12.40;6.10;;;15.10;99.90;;;;;;5021590;28;20120;-85
2021/09/04 01:32:12;;;;;;;9.82;5.70;;;15.20;99.90;;;;;;5026604;28;20017;-87
2021/09/04 01:34:38;;;;;;;9.77;5.65;;;;;;;;;;5029573;28;20141;-87
2021/09/04 01:37:04;;;;;;;8.57;5.20;;;15.10;99.90;;;;;;5034201;28;21033;-87
2021/09/04 01:39:30;;;;;;;10.40;5.88;;;15.10;99.90;;;;;;5030230;28;20026;-85
2021/09/04 01:41:55;;;;;;;9.13;5.57;;;15.10;99.90;;;;;;5030952;28;20558;-85
2021/09/04 01:44:21;;;;;;;8.80;5.30;;;15.00;99.90;;;;;;5036595;28;20018;-88
2021/09/04 01:46:47;;;;;;;10.00;5.88;;;;;;;;;;5048385;28;20041;-87
2021/09/04 01:49:13;;;;;;;10.00;5.75;;;;;;;;;;5043222;28;20570;-86
2021/09/04 01:51:39;;;;;;;10.75;5.53;;;;;;;;;;5034480;28;20056;-87
2021/09/04 01:54:05;;;;;;;10.55;5.55;;;;;;;;;;5035783;28;20079;-88
2021/09/04 01:56:31;;;;;;;10.93;5.65;;;;;;;;;;5035023;28;20459;-88
2021/09/04 01:58:57;;;;;;;10.43;5.63;;;;;;;;;;5034883;28;20099;-88
2021/09/04 02:01:23;;;;;;;9.88;5.72;;;14.90;99.90;;;;;;5033601;28;20491;-88
2021/09/04 02:03:48;;;;;;;8.50;5.22;;;14.90;99.90;;;;;;5034238;28;20048;-86
2021/09/04 02:06:14;;;;;;;9.95;5.60;;;14.80;99.90;;;;;;5032797;28;20026;-88
2021/09/04 02:08:39;;;;;;;9.43;6.00;;;14.80;99.90;;;;;;5032068;28;20057;-86
2021/09/04 02:11:05;;;;;;;8.23;5.72;;;16.90;99.90;;;;;;5030157;28;20014;-88
2021/09/04 02:13:30;;;;;;;10.98;5.53;;;15.70;99.90;;;;;;5034558;28;20040;-87
2021/09/04 02:15:57;;;;;;;9.52;5.55;;;17.20;99.90;;;;;;5030945;28;20048;-89
2021/09/04 02:18:23;;;;;;;8.05;5.18;;;16.50;99.90;;;;;;5036327;28;20123;-87
2021/09/04 02:20:49;;;;;;;12.43;6.00;;;17.00;99.90;;;;;;5035352;28;20030;-88
2021/09/04 02:23:15;;;;;;;9.27;5.60;;;14.80;99.90;;;;;;5035698;28;20029;-86
2021/09/04 02:25:42;;;;;;;7.80;5.28;;;;;;;;;;5032809;28;20036;-88
2021/09/04 02:28:08;;;;;;;7.85;5.40;;;14.80;99.90;;;;;;5033788;28;20049;-88
2021/09/04 02:30:34;;;;;;;11.15;5.85;;;17.90;99.90;;;;;;5030453;28;20053;-87
2021/09/04 02:32:59;;;;;;;9.25;5.95;;;14.70;99.90;;;;;;5034082;28;20045;-88
2021/09/04 02:35:25;;;;;;;9.02;5.85;;;15.90;99.90;;;;;;5030019;28;20024;-89
2021/09/04 02:37:51;;;;;;;10.02;6.47;;;14.70;99.90;;;;;;5041499;28;20028;-87
2021/09/04 02:40:17;;;;;;;10.00;6.00;;;14.70;99.90;;;;;;5035553;28;20055;-88
2021/09/04 02:42:43;;;;;;;9.18;5.70;;;14.70;99.90;;;;;;5037389;28;20455;-86
2021/09/04 02:45:09;;;;;;;8.68;5.88;;;14.70;99.90;;;;;;5035124;28;20037;-88
2021/09/04 02:47:35;;;;;;;10.77;6.35;;;14.70;99.90;;;;;;5032658;28;20049;-88
2021/09/04 02:50:02;;;;;;;8.48;5.97;;;14.70;99.90;;;;;;5031114;28;20060;-85
2021/09/04 02:52:28;;;;;;;8.55;5.75;;;16.80;99.90;;;;;;5036187;28;20029;-87
2021/09/04 02:54:54;;;;;;;9.30;5.40;;;14.90;99.90;;;;;;5041469;28;20033;-87
2021/09/04 02:57:19;;;;;;;9.27;5.45;;;14.70;99.90;;;;;;5035461;28;20029;-88
2021/09/04 02:59:45;;;;;;;11.77;6.22;;;15.80;99.90;;;;;;5029944;28;20083;-89
2021/09/04 03:02:11;;;;;;;11.65;6.68;;;14.60;99.90;;;;;;5034044;28;20030;-87
2021/09/04 03:04:36;;;;;;;9.98;6.18;;;14.70;99.90;;;;;;5035569;28;20059;-88
2021/09/04 03:07:02;;;;;;;11.07;6.85;;;14.60;99.90;;;;;;5036978;28;20502;-89
2021/09/04 03:09:28;;;;;;;10.65;6.78;;;14.70;99.90;;;;;;5036479;28;20059;-88
2021/09/04 03:11:54;;;;;;;9.10;5.68;;;;;;;;;;5040618;28;20030;-86
2021/09/04 03:14:19;;;;;;;8.80;5.53;;;14.70;99.90;;;;;;5042269;28;20018;-87
2021/09/04 03:16:45;;;;;;;11.13;6.43;;;14.60;99.90;;;;;;5037233;28;20045;-86
2021/09/04 03:19:10;;;;;;;9.88;5.78;;;14.60;99.90;;;;;;5032438;28;20056;-84
2021/09/04 03:21:36;;;;;;;11.38;6.10;;;14.60;99.90;;;;;;5034702;28;20588;-88
2021/09/04 03:24:02;;;;;;;11.88;6.18;;;16.00;99.90;;;;;;5033114;28;20036;-88
2021/09/04 03:26:27;;;;;;;10.48;5.55;;;14.50;99.90;;;;;;5031534;28;20061;-88
2021/09/04 03:28:53;;;;;;;10.52;5.97;;;15.20;99.90;;;;;;5028530;28;20355;-87
2021/09/04 03:31:18;;;;;;;10.70;6.50;;;14.40;99.90;;;;;;5031002;28;20390;-86
2021/09/04 03:33:44;;;;;;;8.52;5.38;;;16.90;99.90;;;;;;5039898;28;20075;-88
2021/09/04 03:36:09;;;;;;;10.20;5.97;;;14.40;99.90;;;;;;5024893;28;20025;-86
2021/09/04 03:38:35;;;;;;;8.30;5.60;;;14.40;99.90;;;;;;5038661;28;20029;-86
2021/09/04 03:41:01;;;;;;;7.93;5.10;;;14.50;99.90;;;;;;5032388;28;20049;-87
2021/09/04 03:43:26;;;;;;;11.25;5.78;;;14.50;99.90;;;;;;5030667;28;20491;-85
2021/09/04 03:45:52;;;;;;;9.20;5.88;;;14.50;99.90;;;;;;5026386;28;20025;-86
2021/09/04 03:48:17;;;;;;;8.95;5.28;;;14.40;99.90;;;;;;5031273;28;20124;-87
2021/09/04 03:50:43;;;;;;;9.73;6.07;;;17.50;99.90;;;;;;5028149;28;20435;-87
2021/09/04 03:53:09;;;;;;;9.20;5.80;;;14.40;99.90;;;;;;5040365;28;20093;-88
2021/09/04 03:55:34;;;;;;;10.10;5.30;;;14.30;99.90;;;;;;5028270;28;20053;-89
2021/09/04 03:58:00;;;;;;;9.77;5.57;;;;;;;;;;5038851;28;20091;-87
2021/09/04 04:00:26;;;;;;;10.23;5.82;;;;;;;;;;5038529;28;20036;-88
2021/09/04 04:02:52;;;;;;;9.05;5.47;;;;;;;;;;5032972;28;20025;-88
2021/09/04 04:05:18;;;;;;;11.02;5.45;;;;;;;;;;5014041;28;20034;-87
2021/09/04 04:07:44;;;;;;;11.15;5.55;;;14.30;99.90;;;;;;5027335;28;20042;-87
2021/09/04 04:10:10;;;;;;;10.13;6.40;;;15.50;99.90;;;;;;5037190;28;20022;-87
2021/09/04 04:12:36;;;;;;;8.93;6.13;;;;;;;;;;5034234;28;20048;-88
2021/09/04 04:15:02;;;;;;;9.00;5.47;;;14.10;99.90;;;;;;5034671;28;20487;-90
2021/09/04 04:17:30;;;;;;;9.35;5.53;;;;;;;;;;5029790;28;20034;-84
2021/09/04 04:19:56;;;;;;;10.73;6.18;;;;;;;;;;5035837;28;20117;-87
2021/09/04 04:22:21;;;;;;;8.88;5.90;;;14.00;99.90;;;;;;5032518;28;20068;-87
2021/09/04 04:24:47;;;;;;;10.05;6.53;;;17.50;99.90;;;;;;5033130;28;20041;-88
2021/09/04 04:27:13;;;;;;;9.55;5.72;;;16.30;99.90;;;;;;5032805;28;20150;-88
2021/09/04 04:29:39;;;;;;;11.07;6.30;;;;;;;;;;5031320;28;20017;-85
2021/09/04 04:32:04;;;;;;;9.95;6.18;;;14.00;99.90;;;;;;5037663;28;20050;-86
2021/09/04 04:34:30;;;;;;;8.25;5.75;;;14.00;99.90;;;;;;5033682;28;20057;-88
2021/09/04 04:36:56;;;;;;;10.57;6.70;;;14.00;99.90;;;;;;5033824;28;20364;-88
2021/09/04 04:39:21;;;;;;;10.20;6.53;;;13.80;99.90;;;;;;5027331;28;20395;-87
2021/09/04 04:41:47;;;;;;;10.80;6.38;;;13.90;99.90;;;;;;5032505;28;20079;-88
2021/09/04 04:44:12;;;;;;;14.85;7.78;;;13.90;99.90;;;;;;5028118;28;20453;-86
2021/09/04 04:46:38;;;;;;;10.43;6.38;;;13.90;99.90;;;;;;5027568;28;20029;-88
2021/09/04 04:49:03;;;;;;;10.63;6.38;;;14.70;99.90;;;;;;5029641;28;20033;-86
2021/09/04 04:51:29;;;;;;;10.40;6.70;;;14.30;99.90;;;;;;5021442;28;20030;-87
2021/09/04 04:53:54;;;;;;;12.13;6.57;;;13.90;99.90;;;;;;5030164;28;20051;-86
2021/09/04 04:56:20;;;;;;;10.95;6.00;;;13.80;99.90;;;;;;5032908;28;20398;-83
2021/09/04 04:58:46;;;;;;;9.50;6.38;;;13.80;99.90;;;;;;5031380;28;20029;-85
2021/09/04 05:01:11;;;;;;;11.52;6.25;;;13.80;99.90;;;;;;5029066;28;20092;-85
2021/09/04 05:03:37;;;;;;;10.60;6.35;;;14.40;99.90;;;;;;5047502;28;20037;-86
2021/09/04 05:06:04;;;;;;;12.90;6.78;;;13.80;99.90;;;;;;5033295;28;20415;-87
2021/09/04 05:08:29;;;;;;;11.25;6.70;;;13.80;99.90;;;;;;5029156;28;20026;-85
2021/09/04 05:10:55;;;;;;;9.95;6.50;;;13.70;99.90;;;;;;5042889;28;20081;-86
2021/09/04 05:13:21;;;;;;;12.40;6.97;;;13.80;99.90;;;;;;5039686;28;20021;-87
2021/09/04 05:15:47;;;;;;;10.52;6.88;;;13.70;99.90;;;;;;5033569;28;20041;-88
2021/09/04 05:18:13;;;;;;;9.48;6.35;;;13.70;99.90;;;;;;5036721;28;20064;-86
2021/09/04 05:20:39;;;;;;;11.98;6.47;;;15.80;99.90;;;;;;5032664;28;20037;-86
2021/09/04 05:23:04;;;;;;;9.13;5.97;;;14.00;99.90;;;;;;5030768;28;20033;-86
2021/09/04 05:25:30;;;;;;;9.57;6.32;;;15.90;99.90;;;;;;5033228;28;20030;-87
2021/09/04 05:27:55;;;;;;;9.38;6.10;;;14.90;99.90;;;;;;5034343;28;20029;-88
2021/09/04 05:30:21;;;;;;;10.38;6.07;;;16.50;99.90;;;;;;5032044;28;20482;-88
2021/09/04 05:32:46;;;;;;;9.38;6.35;;;16.20;99.90;;;;;;5026862;28;20120;-87
2021/09/04 05:35:12;;;;;;;10.40;6.13;;;;;;;;;;5031351;28;20478;-88
2021/09/04 05:37:38;;;;;;;9.40;6.00;;;13.70;99.90;;;;;;5034912;28;20037;-87
2021/09/04 05:40:04;;;;;;;12.82;5.40;;;15.80;99.90;;;;;;5050231;28;20025;-87
2021/09/04 05:42:30;;;;;;;9.70;6.13;;;;;;;;;;5032761;28;20021;-86
2021/09/04 05:44:56;;;;;;;9.60;5.95;;;13.80;99.90;;;;;;5038652;28;20088;-85
2021/09/04 05:47:22;;;;;;;8.88;5.90;;;13.80;99.90;;;;;;5029594;28;20018;-86
2021/09/04 05:49:47;;;;;;;10.25;6.15;;;13.80;99.90;;;;;;5033208;28;20026;-86
2021/09/04 05:52:13;;;;;;;8.95;5.60;;;15.20;99.90;;;;;;5033269;28;20026;-88
2021/09/04 05:54:38;;;;;;;9.48;5.75;;;13.80;99.90;;;;;;5033189;28;20120;-85
2021/09/04 05:57:04;;;;;;;10.90;5.63;;;;;;;;;;5040794;28;20034;-88
2021/09/04 05:59:30;;;;;;;10.23;5.80;;;;;;;;;;5032720;28;20368;-86
2021/09/04 06:01:56;;;;;;;12.45;5.53;;;14.00;99.90;;;;;;5031727;28;20410;-85
2021/09/04 06:04:22;;;;;;;9.55;6.18;;;14.00;99.90;;;;;;5036522;28;20026;-88
2021/09/04 06:06:48;;;;;;;12.88;6.45;;;;;;;;;;5035079;28;20057;-88
2021/09/04 06:09:14;;;;;;;11.00;6.50;;;;;;;;;;5039201;28;20021;-86
2021/09/04 06:11:40;;;;;;;12.35;6.35;;;;;;;;;;5031922;28;20389;-88
2021/09/04 06:14:06;;;;;;;11.77;6.03;;;;;;;;;;5039210;28;20033;-87
2021/09/04 06:16:32;;;;;;;9.05;6.20;;;14.20;99.90;;;;;;5028627;28;20022;-87
2021/09/04 06:18:57;;;;;;;13.82;6.15;;;14.60;99.90;;;;;;5033143;28;20048;-86
2021/09/04 06:21:23;;;;;;;9.18;5.78;;;14.30;99.90;;;;;;5029016;28;20021;-86
2021/09/04 06:23:48;;;;;;;8.65;5.75;;;16.40;99.90;;;;;;5033405;28;20029;-89
2021/09/04 06:26:14;;;;;;;9.50;5.97;;;;;;;;;;5035914;28;20048;-85
2021/09/04 06:28:40;;;;;;;30.95;8.50;;;14.50;99.90;;;;;;5036446;28;20036;-88
2021/09/04 06:31:06;;;;;;;11.55;6.40;;;17.00;99.90;;;;;;5030900;28;20036;-86
2021/09/04 06:33:31;;;;;;;9.93;6.78;;;15.50;99.90;;;;;;5031805;28;20030;-86
2021/09/04 06:35:57;;;;;;;9.68;5.85;;;;;;;;;;5037946;28;20065;-87
2021/09/04 06:38:23;;;;;;;10.50;6.35;;;14.90;99.90;;;;;;5033892;28;20017;-85
2021/09/04 06:40:48;;;;;;;8.85;6.00;;;17.10;99.90;;;;;;5033769;28;20479;-88
2021/09/04 06:43:14;;;;;;;9.55;5.75;;;15.00;99.90;;;;;;5026025;28;20037;-82
2021/09/04 06:45:40;;;;;;;10.55;6.20;;;;;;;;;;5031611;28;20025;-88
2021/09/04 06:48:06;;;;;;;12.32;6.00;;;15.40;99.90;;;;;;5026971;28;20441;-88
2021/09/04 06:50:32;;;;;;;9.32;6.20;;;;;;;;;;5023473;28;20018;-86
2021/09/04 06:52:58;;;;;;;9.27;5.30;;;15.60;99.90;;;;;;5013255;28;20175;-89
2021/09/04 06:55:23;;;;;;;11.38;5.75;;;15.70;99.90;;;;;;5033577;28;20068;-87
2021/09/04 06:57:50;;;;;;;11.07;5.70;;;19.10;99.90;;;;;;5035584;28;20036;-88
2021/09/04 07:00:22;;;;;;;15.00;6.05;;;;;;;;;;5027235;28;20026;-86
2021/09/04 07:02:48;;;;;;;23.30;6.70;;;;;;;;;;5030613;28;20028;-87
2021/09/04 07:05:14;;;;;;;18.10;6.35;;;16.00;99.90;;;;;;5033631;28;20116;-86
2021/09/04 07:07:42;;;;;;;25.67;7.15;;;;;;;;;;5027336;28;20113;-84
2021/09/04 07:10:08;;;;;;;22.55;7.15;;;16.30;99.90;;;;;;5038313;28;20026;-86
2021/09/04 07:12:33;;;;;;;20.98;6.90;;;16.70;99.90;;;;;;5032054;28;20061;-88
2021/09/04 07:14:59;;;;;;;31.17;7.53;;;18.30;99.90;;;;;;5030972;28;20048;-85
2021/09/04 07:17:25;;;;;;;23.02;7.55;;;;;;;;;;5038030;28;20036;-84
2021/09/04 07:19:51;;;;;;;31.17;7.65;;;17.00;99.90;;;;;;5025164;28;20029;-87
2021/09/04 07:22:16;;;;;;;26.75;7.78;;;17.10;99.90;;;;;;5034158;28;20028;-87
2021/09/04 07:24:42;;;;;;;24.60;6.55;;;17.10;99.90;;;;;;5033548;28;20541;-83
2021/09/04 07:27:08;;;;;;;24.02;6.82;;;17.30;99.90;;;;;;5031901;28;20033;-85
2021/09/04 07:29:34;;;;;;;18.88;7.05;;;;;;;;;;5031470;28;20033;-88
2021/09/04 07:32:00;;;;;;;17.15;6.45;;;17.50;99.90;;;;;;5027021;28;20022;-86
2021/09/04 07:34:26;;;;;;;18.52;6.22;;;17.80;99.90;;;;;;5033325;28;20013;-84
2021/09/04 07:36:51;;;;;;;18.02;5.90;;;18.00;99.90;;;;;;5028179;28;20037;-86
2021/09/04 07:39:17;;;;;;;19.52;5.97;;;18.10;99.90;;;;;;5031242;28;20132;-87
2021/09/04 07:41:43;;;;;;;22.25;5.95;;;18.30;99.90;;;;;;5022391;28;20415;-88
2021/09/04 07:44:08;;;;;;;18.20;6.43;;;18.80;99.70;;;;;;5028455;28;20108;-85
2021/09/04 07:46:34;;;;;;;13.10;6.40;;;18.60;99.40;;;;;;5026946;28;20458;-84
2021/09/04 07:49:00;;;;;;;16.70;5.80;;;18.90;99.20;;;;;;5028279;28;20072;-86
2021/09/04 07:51:25;;;;;;;12.50;5.35;;;19.00;98.50;;;;;;5030640;28;20026;-85
2021/09/04 07:53:51;;;;;;;13.57;6.10;;;;;;;;;;5031372;28;20486;-85
2021/09/04 07:56:17;;;;;;;11.75;5.28;;;19.30;97.90;;;;;;5034775;28;20013;-86
2021/09/04 07:58:43;;;;;;;11.13;5.60;;;19.30;97.90;;;;;;5032625;28;20481;-87
2021/09/04 08:01:08;;;;;;;12.15;5.18;;;19.30;98.20;;;;;;5033591;28;20093;-89
2021/09/04 08:03:34;;;;;;;10.15;5.18;;;19.50;97.90;;;;;;5032641;28;20117;-87
2021/09/04 08:06:00;;;;;;;15.02;5.68;;;19.60;98.00;;;;;;5031601;28;20025;-84
2021/09/04 08:08:26;;;;;;;13.55;5.28;;;19.80;97.50;;;;;;5032328;28;20199;-87
2021/09/04 08:10:52;;;;;;;8.60;4.97;;;19.90;97.40;;;;;;5029176;28;20507;-86
2021/09/04 08:13:17;;;;;;;8.02;4.50;;;20.10;97.30;;;;;;5031797;28;20104;-85
2021/09/04 08:15:44;;;;;;;8.38;5.10;;;20.40;95.70;;;;;;5033838;28;20445;-88
2021/09/04 08:18:10;;;;;;;6.50;4.60;;;20.50;96.00;;;;;;5021198;28;20022;-88
2021/09/04 08:20:35;;;;;;;7.22;4.30;;;20.60;95.40;;;;;;5040449;28;20434;-88
2021/09/04 08:23:06;;;;;;;8.63;4.80;;;20.70;95.60;;;;;;5031996;28;20041;-88
2021/09/04 08:25:32;;;;;;;7.78;4.47;;;20.70;95.30;;;;;;5030218;28;20021;-86
2021/09/04 08:27:58;;;;;;;7.32;4.80;;;20.80;95.00;;;;;;5028457;28;20124;-87
2021/09/04 08:30:23;;;;;;;7.53;4.53;;;21.00;94.70;;;;;;5023157;28;20026;-86
2021/09/04 08:32:49;;;;;;;7.95;4.85;;;21.10;94.60;;;;;;5025486;28;20379;-85
2021/09/04 08:35:15;;;;;;;7.13;4.22;;;21.30;94.10;;;;;;5027739;28;20030;-87
2021/09/04 08:37:42;;;;;;;6.38;4.15;;;21.40;93.70;;;;;;5027254;28;20120;-85
2021/09/04 08:40:09;;;;;;;6.80;4.47;;;21.40;93.70;;;;;;5026099;28;20063;-86
2021/09/04 08:42:35;;;;;;;9.93;4.75;;;;;;;;;;5031188;28;20541;-87
2021/09/04 08:45:01;;;;;;;8.05;4.20;;;;;;;;;;5036005;28;20037;-86
2021/09/04 08:47:29;;;;;;;6.93;4.28;;;21.60;93.30;;;;;;5035250;28;20033;-84
2021/09/04 08:49:55;;;;;;;8.30;4.53;;;;;;;;;;5035626;28;20112;-84
2021/09/04 08:52:21;;;;;;;6.70;4.50;;;;;;;;;;5032662;28;20455;-85
2021/09/04 08:54:47;;;;;;;6.88;4.30;;;21.80;93.00;;;;;;5021542;28;20062;-86
2021/09/04 08:57:14;;;;;;;9.35;4.55;;;22.00;92.80;;;;;;5029038;28;20060;-86
2021/09/04 08:59:39;;;;;;;5.40;3.95;;;22.00;92.90;;;;;;5023297;28;20029;-85
2021/09/04 09:02:12;;;;;;;7.80;4.32;;;22.40;92.80;;;;;;5029474;28;20025;-85
2021/09/04 09:04:39;;;;;;;7.50;4.50;;;;;;;;;;5043610;28;20033;-84
2021/09/04 09:07:05;;;;;;;7.38;4.35;;;22.30;92.40;;;;;;5026278;28;20045;-85
2021/09/04 09:09:30;;;;;;;8.30;4.20;;;22.40;92.60;;;;;;5025716;28;20060;-85
2021/09/04 09:11:57;;;;;;;6.25;4.30;;;22.50;92.40;;;;;;5031115;28;20091;-86
2021/09/04 09:14:24;;;;;;;6.63;4.30;;;22.70;91.90;;;;;;5026665;28;20075;-85
2021/09/04 09:16:59;;;;;;;6.32;4.10;;;22.80;91.60;;;;;;5029884;28;20025;-86
2021/09/04 09:19:27;;;;;;;6.55;3.90;;;22.80;91.80;;;;;;5019611;28;20021;-84
2021/09/04 09:21:56;;;;;;;6.40;3.95;;;22.90;91.30;;;;;;5032917;28;20149;-86
2021/09/04 09:24:24;;;;;;;8.93;4.40;;;22.90;91.40;;;;;;5030020;28;20398;-87
2021/09/04 09:26:56;;;;;;;9.38;4.82;;;23.00;90.70;;;;;;5029807;28;20036;-84
2021/09/04 09:29:34;;;;;;;8.82;4.38;;;23.00;90.60;;;;;;5031940;28;20049;-87
2021/09/04 09:32:09;;;;;;;7.18;4.75;;;23.20;90.40;;;;;;5030096;28;20380;-87
2021/09/04 09:34:40;;;;;;;7.50;4.15;;;23.30;89.50;;;;;;5033989;28;20037;-88
2021/09/04 09:37:09;;;;;;;6.07;4.30;;;23.40;89.20;;;;;;5035650;28;20033;-89
2021/09/04 09:39:40;;;;;;;7.32;4.20;;;23.40;88.50;;;;;;5048103;28;20120;-86
2021/09/04 09:42:09;;;;;;;10.52;4.28;;;23.60;88.40;;;;;;5032054;28;20052;-88
2021/09/04 09:44:36;;;;;;;7.60;4.25;;;23.60;88.80;;;;;;5036676;28;20025;-86
2021/09/04 09:47:07;;;;;;;7.18;3.90;;;23.80;87.10;;;;;;5031687;28;20495;-87
2021/09/04 09:49:42;;;;;;;7.63;4.00;;;23.90;86.40;;;;;;5022011;28;20026;-87
2021/09/04 09:52:10;;;;;;;7.88;4.25;;;23.90;87.00;;;;;;5037703;28;20513;-85
2021/09/04 09:54:37;;;;;;;11.70;4.68;;;24.00;87.20;;;;;;5029622;28;20402;-86
2021/09/04 09:57:06;;;;;;;6.95;4.13;;;24.10;87.70;;;;;;5026263;28;20022;-87
2021/09/04 09:59:31;;;;;;;6.70;3.97;;;24.20;86.20;;;;;;5040580;28;20032;-86
2021/09/04 10:02:09;;;;;;;8.57;4.32;;;24.30;85.30;;;;;;5027093;28;20033;-86
2021/09/04 10:04:37;;;;;;;8.48;3.92;;;24.30;84.40;;;;;;5026785;28;20033;-86
2021/09/04 10:07:05;;;;;;;7.32;3.78;;;24.40;84.80;;;;;;5031164;28;20044;-85
2021/09/04 10:09:31;;;;;;;5.75;4.32;;;24.30;85.30;;;;;;5038065;28;20026;-86
2021/09/04 10:11:58;;;;;;;6.65;4.20;;;;;;;;;;5030078;28;20097;-85
2021/09/04 10:14:24;;;;;;;6.30;4.18;;;;;;;;;;5034027;28;20439;-86
2021/09/04 10:16:54;;;;;;;7.65;4.03;;;24.50;83.20;;;;;;5027636;28;20033;-83
2021/09/04 10:19:27;;;;;;;6.45;3.85;;;24.50;82.80;;;;;;5021848;28;20029;-82
2021/09/04 10:22:00;;;;;;;6.50;4.00;;;24.50;82.50;;;;;;5030087;28;20052;-85
2021/09/04 10:24:52;;;;;;;7.07;3.80;;;24.70;83.10;;;;;;5035195;28;20029;-86
2021/09/04 10:27:42;;;;;;;7.40;4.10;;;24.90;81.60;;;;;;5026780;28;20025;-85
2021/09/04 10:30:35;;;;;;;6.53;3.80;;;25.00;81.30;;;;;;5037073;28;20056;-84
2021/09/04 10:33:01;;;;;;;6.18;4.00;;;;;;;;;;5029462;28;20116;-83
2021/09/04 10:35:52;;;;;;;5.13;3.35;;;25.10;79.50;;;;;;5026668;28;20085;-85
2021/09/04 10:38:20;;;;;;;5.13;3.40;;;25.20;80.00;;;;;;5028348;28;20391;-82
2021/09/04 10:40:49;;;;;;;6.68;3.50;;;25.20;79.90;;;;;;5024805;28;20056;-81
2021/09/04 10:43:15;;;;;;;6.03;3.60;;;25.30;78.90;;;;;;5045258;28;20506;-85
2021/09/04 10:45:44;;;;;;;6.70;3.83;;;25.40;78.70;;;;;;5032657;28;20036;-85
2021/09/04 10:48:15;;;;;;;5.10;3.60;;;25.40;78.70;;;;;;5034017;28;20144;-84
2021/09/04 10:50:41;;;;;;;6.35;3.28;;;;;;;;;;5030786;28;20041;-86
2021/09/04 10:53:07;;;;;;;8.18;3.85;;;;;;;;;;5034268;28;20368;-83
2021/09/04 10:55:33;;;;;;;6.65;3.60;;;;;;;;;;5034038;28;20055;-85
2021/09/04 10:58:15;;;;;;;7.75;4.18;;;25.80;76.70;;;;;;5032734;28;20029;-84
2021/09/04 11:00:46;;;;;;;6.70;3.65;;;25.90;75.80;;;;;;5031677;28;20029;-85
2021/09/04 11:03:20;;;;;;;5.60;3.70;;;25.90;75.90;;;;;;5037365;28;20025;-83
2021/09/04 11:05:47;;;;;;;5.18;3.35;;;26.00;75.30;;;;;;5030666;28;20057;-86
2021/09/04 11:08:13;;;;;;;8.63;3.63;;;26.00;75.90;;;;;;5023252;28;20653;-83
2021/09/04 11:10:41;;;;;;;6.82;4.10;;;26.10;75.50;;;;;;5035024;28;20025;-83
2021/09/04 11:13:13;;;;;;;7.57;3.70;;;26.20;76.10;;;;;;5030778;28;20041;-84
2021/09/04 11:15:40;;;;;;;5.65;3.35;;;26.30;73.20;;;;;;5025247;28;20033;-86
2021/09/04 11:18:07;;;;;;;4.90;3.50;;;;;;;;;;5025702;28;20025;-85
2021/09/04 11:20:33;;;;;;;5.43;3.63;;;;;;;;;;5021885;28;20075;-85
2021/09/04 11:22:59;;;;;;;5.95;3.85;;;26.30;73.20;;;;;;5031424;28;20040;-84
2021/09/04 11:25:25;;;;;;;6.10;3.60;;;;;;;;;;5027778;28;20038;-85
2021/09/04 11:27:50;;;;;;;5.55;3.50;;;26.50;73.00;;;;;;5025428;28;20034;-83
2021/09/04 11:30:22;;;;;;;6.38;3.65;;;26.40;72.80;;;;;;5025603;28;20033;-83
2021/09/04 11:32:48;;;;;;;7.18;3.40;;;;;;;;;;5020675;28;20084;-84
2021/09/04 11:35:15;;;;;;;5.22;3.30;;;;;;;;;;5025244;28;20025;-85
2021/09/04 11:37:43;;;;;;;5.68;3.65;;;26.60;71.90;;;;;;5032317;28;20084;-83
2021/09/04 11:40:12;;;;;;;5.63;3.92;;;26.50;71.90;;;;;;5036483;28;20036;-82
2021/09/04 11:42:43;;;;;;;6.87;3.33;;;26.70;71.20;;;;;;5034001;28;20040;-83
2021/09/04 11:45:10;;;;;;;7.30;3.25;;;26.70;71.20;;;;;;5030345;28;20067;-83
2021/09/04 11:47:38;;;;;;;6.15;3.80;;;26.60;69.90;;;;;;5026674;28;20072;-85
2021/09/04 11:50:10;;;;;;;6.43;3.50;;;26.40;69.10;;;;;;5033221;28;20140;-82
2021/09/04 11:52:40;;;;;;;4.55;3.40;;;26.20;68.50;;;;;;5046790;28;20032;-84
2021/09/04 11:55:10;;;;;;;5.18;3.28;;;;;;;;;;5022130;28;20059;-84
2021/09/04 11:57:37;;;;;;;6.82;4.20;;;26.30;69.90;;;;;;5040779;28;20075;-86
2021/09/04 12:00:07;;;;;;;4.60;3.33;;;26.50;69.60;;;;;;5035507;28;20029;-87
2021/09/04 12:02:34;;;;;;;6.25;3.25;;;26.40;69.50;;;;;;5027151;28;20041;-86
2021/09/04 12:05:04;;;;;;;6.57;3.67;;;26.60;68.50;;;;;;5025416;28;20032;-82
2021/09/04 12:07:31;;;;;;;4.78;3.38;;;26.80;68.10;;;;;;5026509;28;20033;-85
2021/09/04 12:09:58;;;;;;;6.13;3.55;;;26.70;68.40;;;;;;5034315;28;20033;-86
2021/09/04 12:12:26;;;;;;;6.10;3.60;;;26.80;69.50;;;;;;5024764;28;20071;-86
2021/09/04 12:14:53;;;;;;;6.68;4.10;;;26.60;70.90;;;;;;5040861;28;20051;-82
2021/09/04 12:17:19;;;;;;;6.15;4.00;;;26.60;71.20;;;;;;5032513;28;20079;-82
2021/09/04 12:19:45;;;;;;;5.47;3.80;;;;;;;;;;5029441;28;20033;-84
2021/09/04 12:22:11;;;;;;;5.47;3.50;;;;;;;;;;5031307;28;20026;-83
2021/09/04 12:24:37;;;;;;;6.72;3.72;;;;;;;;;;5046870;28;20035;-85
2021/09/04 12:27:03;;;;;;;5.78;3.80;;;;;;;;;;5044757;28;20375;-86
2021/09/04 12:29:31;;;;;;;5.45;3.80;;;27.30;68.20;;;;;;5031271;28;20049;-85
2021/09/04 12:32:24;;;;;;;6.43;3.70;;;27.20;68.10;;;;;;5049135;28;20033;-84
2021/09/04 12:34:56;;;;;;;9.13;4.07;;;27.40;68.20;;;;;;5037457;28;20273;-85
2021/09/04 12:37:28;;;;;;;4.28;3.38;;;27.40;68.10;;;;;;5033317;28;20021;-85
2021/09/04 12:40:12;;;;;;;5.95;3.90;;;26.60;68.00;;;;;;5035601;28;20407;-85
2021/09/04 12:42:39;;;;;;;5.43;3.60;;;26.50;68.50;;;;;;5038291;28;20471;-83
2021/09/04 12:45:18;;;;;;;5.57;3.40;;;;;;;;;;5028676;28;20040;-84
2021/09/04 12:47:47;;;;;;;7.65;3.40;;;26.50;67.90;;;;;;5038533;28;20057;-84
2021/09/04 12:50:24;;;;;;;6.28;3.63;;;26.50;66.80;;;;;;5033450;28;20026;-81
2021/09/04 12:53:07;;;;;;;6.10;3.30;;;26.40;66.80;;;;;;5043202;28;20482;-84
2021/09/04 12:55:47;;;;;;;5.15;3.30;;;26.10;67.20;;;;;;5033602;28;20037;-84
2021/09/04 12:58:13;;;;;;;7.00;3.47;;;25.80;68.90;;;;;;5034222;28;20477;-83
2021/09/04 13:00:38;;;;;;;4.57;3.00;;;25.60;70.00;;;;;;5035839;28;20125;-82
2021/09/04 13:03:04;;;;;;;5.30;3.47;;;25.30;70.90;;;;;;5028531;28;20060;-84
2021/09/04 13:05:30;;;;;;;4.90;3.38;;;;;;;;;;5028370;28;20108;-82
2021/09/04 13:07:57;;;;;;;5.47;3.47;;;25.30;71.10;;;;;;5035255;28;20061;-81